Langdon, ND

10:21 PM CST on February 09, 2016 (GMT -0600)
Langdon | | Change Station
CLOSE
Current Station
Airport
Location: Langdon,
Elevation: 1608 ft
Nearby Weather Stations
Active Advisory: Special Statement

Elev 1608 ft 48.75 °N, 98.39 °W | Updated 6 minutes ago

Clear
Clear
3 °F
Feels Like -8 °F
N
6
Wind Variable Wind from East

Today
High -- | Low -- °F
--% Chance of Precip.
Yesterday
High -- | Low -- °F
Precip. -- in
Pressure 30.15 in
Visibility 10.0 miles
Clouds Clear
Windchill -8 °F
Dew Point 0 °F
Humidity 85%
Rainfall 0.00 in
Snow Depth Not available.
7:52 AM 5:44 PM
Waxing Crescent, 3% visible
METAR KD55 100415Z AUTO 10005KT 10SM CLR M16/M18 A3015 RMK AO2
Pressure 30.15 in
Visibility 10.0 miles
Clouds Clear
Windchill -8 °F
Dew Point 0 °F
Humidity 85%
Rainfall 0.00 in
Snow Depth Not available.
7:52 AM 5:44 PM
Waxing Crescent, 3% visible
METAR KD55 100415Z AUTO 10005KT 10SM CLR M16/M18 A3015 RMK AO2

10-Day Weather Forecast

Almanac

Astronomy

Feb. 09, 2016 Rise Set
Actual Time
Civil Twilight
Nautical Twilight
Astronomical Twilight
Moon
Length of Visible Light
Length of Day
Tomorrow will be .
, % of the Moon is Illuminated

Today's Extremes

State Highs State Lows

Community

WunderPhotos

Upload Photos

1,891,799 photos uploaded!

WunderBlog® & News

Nearby

Air Quality

  Air Quality AQ Index Pollutant
Not available.

Snow Depth

Station Depth Elevation

Earthquake Activity

City Distance Mag. Time & Date
Minimum magnitude displayed is 2.5.

Coastal Water Temperatures

Place Temperature

Stations

Nearby Weather Stations

Station Location Temp. Windchill Dew Point Humidity Wind Precip. Elev Updated Type
                   

Watches & Warnings

Special Statement
Issued: 3:36 PM CST Feb. 9, 2016 – National Weather Service

... Snow tonight into Wednesday...

A quick moving clipper will likely produce 1 to 3 inches of snow
for the Devils Lake basin and into Valley City to Forman area by
early afternoon on Wednesday. There is also chance for a narrow
area of heavier snowfall... up to 5 inches... within this snow
band.



Jk


336 PM CST Tue Feb 9 2016

... Snow tonight into Wednesday...

A quick moving clipper will likely produce 1 to 3 inches of snow
for the Devils Lake basin and into Valley City to Forman area by
early afternoon on Wednesday. There is also chance for a narrow
area of heavier snowfall... up to 5 inches... within this snow
band.



Jk